LLMG weather

Megiddo Airport
Afula, Northern District, Israel

Public forecast

Using degrees Celsius for public forecast. Weather courtesy of forecast.io.

METAR (pilot weather report)

Report is more than 2 hours old.

Closest report is Haifa International Airport, 15.8 nm (29.3 km) NW. Retrieved 2019/08/17 19:50 UTC (2 hours ago):

LLHA 171950Z 28005KT 260V320 9999 SCT027 28/22 Q1007

TAF (pilot weather forecast)

Closest forecast is Haifa International Airport, 15.8 nm (29.3 km) NW. Retrieved 2019/08/17 18:00 UTC (4 hours ago):

TAF LLHA 171705Z 1718/1818 22005KT 9999 SCT025 PROB40 1803/1807 -RA BKN025 BECMG 1807/1809 27012KT SCT030 TX31/1812Z TN27/1803Z